Hauptseite
METAR-TAF:

METAR-TAF

Flughäfen :

Flughafen Lelystad

Lelystad, Niederlande

Breite: 52-27-37N, Länge: 005-31-38E, Höhe: -4 m

Beobachtung

Neuester Wetterbericht von vor 19 Minuten, um 01:55 UTC
Wind 5 kt aus Südwest
Temperatur 17°C
Luftfeuchtigkeit 94%
Luftdruck 1006 hPa
Sichtweite 10 km oder mehr

METAR: EHLE 250155Z AUTO 23005KT 9999 NSC 17/16 Q1006

Zeit: 04:14 (02:14 UTC)

Prognose

Neuester Wetterbericht von vor 3 Stunden und 6 Minuten, um 23:08 UTC
Gültige Prognose vom 25 um 00 UTC bis 26 um 06 UTC
Wind 15 kt aus Ost
Sichtweite 10 km oder mehr
Aufgelockert bewölkt in der Höhe von 1800 ft
Wahrscheinlichkeit 40% :
Zeitweise
vom 25 um 06 UTC bis 25 um 15 UTC
Sichtweite: 4000 m
Aufgelockert bewölkt in der Höhe von 1800 ft, Kumulonimbus.
Regenschauer

TAF: EHLE 242308Z 2500/2606 10015KT 9999 SCT018 PROB40 TEMPO 2506/2515 4000 SHRA SCT018CB

Wetterbeobachtungen und Prognosen von mehr als 4000 Flughäfen (METAR und TAF Bericht).

Die verfügbaren Stationen werden durch gelbe und rote Markierungen auf der Karte dargestellt.

Führen Sie die Maus auf sie, um den Namen der Station zu sehen.

Darauf klicken, um die Beobachtung von Wetterbeobachtungen und Prognosen zu sehen.

Um die Karte zu ändern : klicken Sie auf den grünen Tasten mit einem schwarzen Kreuz Zum Vergrößern, auf den grünen Button mit einem Gedankenstrich zu verkleinern, oder auf die grünen Pfeile für benachbarte Karten.


METAR-TAF: